sensor_id;sensor_type;location;lat;lon;timestamp;P1;durP1;ratioP1;P2;durP2;ratioP2
9763;SDS011;4921;43.214;27.936;2023-05-07T00:01:40;2.63;;;1.93;;
9763;SDS011;4921;43.214;27.936;2023-05-07T00:04:09;1.77;;;1.67;;
9763;SDS011;4921;43.214;27.936;2023-05-07T00:06:36;2.17;;;1.60;;
9763;SDS011;4921;43.214;27.936;2023-05-07T00:09:03;3.70;;;1.57;;
9763;SDS011;4921;43.214;27.936;2023-05-07T00:11:30;2.13;;;1.53;;
9763;SDS011;4921;43.214;27.936;2023-05-07T00:13:57;5.20;;;2.07;;
9763;SDS011;4921;43.214;27.936;2023-05-07T00:16:25;2.87;;;1.70;;
9763;SDS011;4921;43.214;27.936;2023-05-07T00:18:52;3.20;;;1.60;;
9763;SDS011;4921;43.214;27.936;2023-05-07T00:21:20;2.70;;;1.60;;
9763;SDS011;4921;43.214;27.936;2023-05-07T00:23:47;5.33;;;1.70;;
9763;SDS011;4921;43.214;27.936;2023-05-07T00:26:14;3.33;;;1.80;;
9763;SDS011;4921;43.214;27.936;2023-05-07T00:28:41;3.60;;;1.90;;
9763;SDS011;4921;43.214;27.936;2023-05-07T00:31:08;2.07;;;1.80;;
9763;SDS011;4921;43.214;27.936;2023-05-07T00:33:35;2.90;;;1.67;;
9763;SDS011;4921;43.214;27.936;2023-05-07T00:36:02;3.80;;;1.60;;
9763;SDS011;4921;43.214;27.936;2023-05-07T00:38:31;2.50;;;1.90;;
9763;SDS011;4921;43.214;27.936;2023-05-07T00:40:58;2.37;;;1.77;;
9763;SDS011;4921;43.214;27.936;2023-05-07T00:43:24;3.87;;;1.87;;
9763;SDS011;4921;43.214;27.936;2023-05-07T00:45:52;2.57;;;2.00;;
9763;SDS011;4921;43.214;27.936;2023-05-07T00:48:20;3.93;;;2.17;;
9763;SDS011;4921;43.214;27.936;2023-05-07T00:50:49;1.97;;;1.87;;
9763;SDS011;4921;43.214;27.936;2023-05-07T00:53:16;5.67;;;1.87;;
9763;SDS011;4921;43.214;27.936;2023-05-07T00:55:45;4.60;;;2.10;;
9763;SDS011;4921;43.214;27.936;2023-05-07T00:58:12;3.37;;;1.87;;
9763;SDS011;4921;43.214;27.936;2023-05-07T01:00:40;3.83;;;2.20;;
9763;SDS011;4921;43.214;27.936;2023-05-07T01:03:07;4.70;;;2.10;;
9763;SDS011;4921;43.214;27.936;2023-05-07T01:05:33;5.63;;;2.53;;
9763;SDS011;4921;43.214;27.936;2023-05-07T01:08:01;2.67;;;2.20;;
9763;SDS011;4921;43.214;27.936;2023-05-07T01:10:30;7.23;;;2.33;;
9763;SDS011;4921;43.214;27.936;2023-05-07T01:12:59;4.13;;;2.10;;
9763;SDS011;4921;43.214;27.936;2023-05-07T01:15:26;3.50;;;2.37;;
9763;SDS011;4921;43.214;27.936;2023-05-07T01:17:56;3.57;;;2.03;;
9763;SDS011;4921;43.214;27.936;2023-05-07T01:20:23;3.43;;;1.77;;
9763;SDS011;4921;43.214;27.936;2023-05-07T01:22:52;2.63;;;2.20;;
9763;SDS011;4921;43.214;27.936;2023-05-07T01:25:19;9.03;;;2.20;;
9763;SDS011;4921;43.214;27.936;2023-05-07T01:27:47;2.57;;;2.10;;
9763;SDS011;4921;43.214;27.936;2023-05-07T01:30:14;3.93;;;2.30;;
9763;SDS011;4921;43.214;27.936;2023-05-07T01:32:42;4.60;;;2.57;;
9763;SDS011;4921;43.214;27.936;2023-05-07T01:35:13;3.03;;;2.30;;
9763;SDS011;4921;43.214;27.936;2023-05-07T01:37:45;3.70;;;2.30;;
9763;SDS011;4921;43.214;27.936;2023-05-07T01:40:14;3.60;;;2.00;;
9763;SDS011;4921;43.214;27.936;2023-05-07T01:42:41;14.37;;;2.50;;
9763;SDS011;4921;43.214;27.936;2023-05-07T01:45:10;4.33;;;2.37;;
9763;SDS011;4921;43.214;27.936;2023-05-07T01:47:37;4.20;;;2.47;;
9763;SDS011;4921;43.214;27.936;2023-05-07T01:50:06;2.93;;;2.37;;
9763;SDS011;4921;43.214;27.936;2023-05-07T01:52:35;4.80;;;2.37;;
9763;SDS011;4921;43.214;27.936;2023-05-07T01:55:03;4.80;;;2.20;;
9763;SDS011;4921;43.214;27.936;2023-05-07T01:57:32;5.10;;;2.10;;
9763;SDS011;4921;43.214;27.936;2023-05-07T01:59:59;4.63;;;2.33;;
9763;SDS011;4921;43.214;27.936;2023-05-07T02:02:26;5.73;;;2.37;;
9763;SDS011;4921;43.214;27.936;2023-05-07T02:04:53;4.43;;;2.47;;
9763;SDS011;4921;43.214;27.936;2023-05-07T02:07:20;3.67;;;2.13;;
9763;SDS011;4921;43.214;27.936;2023-05-07T02:09:47;3.83;;;2.20;;
9763;SDS011;4921;43.214;27.936;2023-05-07T02:12:14;2.90;;;2.13;;
9763;SDS011;4921;43.214;27.936;2023-05-07T02:14:43;6.47;;;2.20;;
9763;SDS011;4921;43.214;27.936;2023-05-07T02:17:10;5.50;;;2.17;;
9763;SDS011;4921;43.214;27.936;2023-05-07T02:19:36;3.33;;;2.03;;
9763;SDS011;4921;43.214;27.936;2023-05-07T02:22:03;3.50;;;2.00;;
9763;SDS011;4921;43.214;27.936;2023-05-07T02:24:30;5.20;;;2.13;;
9763;SDS011;4921;43.214;27.936;2023-05-07T02:26:57;5.43;;;2.10;;
9763;SDS011;4921;43.214;27.936;2023-05-07T02:29:25;6.23;;;1.80;;
9763;SDS011;4921;43.214;27.936;2023-05-07T02:31:53;3.63;;;1.90;;
9763;SDS011;4921;43.214;27.936;2023-05-07T02:34:20;7.30;;;2.20;;
9763;SDS011;4921;43.214;27.936;2023-05-07T02:36:47;4.63;;;2.23;;
9763;SDS011;4921;43.214;27.936;2023-05-07T02:39:14;2.40;;;1.77;;
9763;SDS011;4921;43.214;27.936;2023-05-07T02:41:41;4.23;;;1.97;;
9763;SDS011;4921;43.214;27.936;2023-05-07T02:44:08;4.87;;;2.40;;
9763;SDS011;4921;43.214;27.936;2023-05-07T02:46:35;4.97;;;1.97;;
9763;SDS011;4921;43.214;27.936;2023-05-07T02:49:03;5.07;;;2.07;;
9763;SDS011;4921;43.214;27.936;2023-05-07T02:51:31;4.17;;;2.07;;
9763;SDS011;4921;43.214;27.936;2023-05-07T02:53:58;2.93;;;2.33;;
9763;SDS011;4921;43.214;27.936;2023-05-07T02:56:26;4.73;;;2.20;;
9763;SDS011;4921;43.214;27.936;2023-05-07T02:58:53;2.60;;;2.40;;
9763;SDS011;4921;43.214;27.936;2023-05-07T03:01:20;3.70;;;1.90;;
9763;SDS011;4921;43.214;27.936;2023-05-07T03:03:47;4.93;;;2.27;;
9763;SDS011;4921;43.214;27.936;2023-05-07T03:06:15;3.77;;;2.17;;
9763;SDS011;4921;43.214;27.936;2023-05-07T03:08:42;2.00;;;1.80;;
9763;SDS011;4921;43.214;27.936;2023-05-07T03:11:09;3.83;;;2.10;;
9763;SDS011;4921;43.214;27.936;2023-05-07T03:13:36;6.83;;;2.50;;
9763;SDS011;4921;43.214;27.936;2023-05-07T03:16:03;5.57;;;1.90;;
9763;SDS011;4921;43.214;27.936;2023-05-07T03:18:31;4.77;;;2.10;;
9763;SDS011;4921;43.214;27.936;2023-05-07T03:20:58;3.90;;;1.87;;
9763;SDS011;4921;43.214;27.936;2023-05-07T03:23:26;3.43;;;2.07;;
9763;SDS011;4921;43.214;27.936;2023-05-07T03:25:53;5.80;;;2.03;;
9763;SDS011;4921;43.214;27.936;2023-05-07T03:28:20;4.57;;;1.90;;
9763;SDS011;4921;43.214;27.936;2023-05-07T03:30:47;5.40;;;2.00;;
9763;SDS011;4921;43.214;27.936;2023-05-07T03:33:14;2.30;;;2.10;;
9763;SDS011;4921;43.214;27.936;2023-05-07T03:35:41;4.87;;;2.00;;
9763;SDS011;4921;43.214;27.936;2023-05-07T03:38:08;5.23;;;2.20;;
9763;SDS011;4921;43.214;27.936;2023-05-07T03:40:36;5.03;;;2.40;;
9763;SDS011;4921;43.214;27.936;2023-05-07T03:43:03;5.87;;;2.07;;
9763;SDS011;4921;43.214;27.936;2023-05-07T03:45:30;7.27;;;1.97;;
9763;SDS011;4921;43.214;27.936;2023-05-07T03:47:57;3.27;;;2.00;;
9763;SDS011;4921;43.214;27.936;2023-05-07T03:50:24;4.83;;;1.90;;
9763;SDS011;4921;43.214;27.936;2023-05-07T03:52:51;4.93;;;1.93;;
9763;SDS011;4921;43.214;27.936;2023-05-07T03:55:18;4.17;;;2.23;;
9763;SDS011;4921;43.214;27.936;2023-05-07T03:57:46;4.17;;;2.07;;
9763;SDS011;4921;43.214;27.936;2023-05-07T04:00:13;5.23;;;2.10;;
9763;SDS011;4921;43.214;27.936;2023-05-07T04:02:41;3.43;;;2.10;;
9763;SDS011;4921;43.214;27.936;2023-05-07T04:05:08;4.23;;;2.03;;
9763;SDS011;4921;43.214;27.936;2023-05-07T04:07:35;4.73;;;1.87;;
9763;SDS011;4921;43.214;27.936;2023-05-07T04:10:01;4.17;;;1.87;;
9763;SDS011;4921;43.214;27.936;2023-05-07T04:12:29;5.13;;;2.00;;
9763;SDS011;4921;43.214;27.936;2023-05-07T04:14:57;4.80;;;1.80;;
9763;SDS011;4921;43.214;27.936;2023-05-07T04:17:24;3.47;;;1.80;;
9763;SDS011;4921;43.214;27.936;2023-05-07T04:19:50;3.10;;;2.30;;
9763;SDS011;4921;43.214;27.936;2023-05-07T04:22:17;4.57;;;2.10;;
9763;SDS011;4921;43.214;27.936;2023-05-07T04:24:44;2.97;;;1.93;;
9763;SDS011;4921;43.214;27.936;2023-05-07T04:27:11;2.53;;;1.80;;
9763;SDS011;4921;43.214;27.936;2023-05-07T04:29:38;4.47;;;2.13;;
9763;SDS011;4921;43.214;27.936;2023-05-07T04:32:08;3.10;;;2.00;;
9763;SDS011;4921;43.214;27.936;2023-05-07T04:34:35;4.30;;;1.87;;
9763;SDS011;4921;43.214;27.936;2023-05-07T04:37:02;4.57;;;1.87;;
9763;SDS011;4921;43.214;27.936;2023-05-07T04:39:29;3.93;;;2.13;;
9763;SDS011;4921;43.214;27.936;2023-05-07T04:41:56;3.93;;;2.10;;
9763;SDS011;4921;43.214;27.936;2023-05-07T04:44:23;4.10;;;1.97;;
9763;SDS011;4921;43.214;27.936;2023-05-07T04:46:50;3.07;;;1.87;;
9763;SDS011;4921;43.214;27.936;2023-05-07T04:49:19;2.90;;;2.00;;
9763;SDS011;4921;43.214;27.936;2023-05-07T04:51:45;5.23;;;2.20;;
9763;SDS011;4921;43.214;27.936;2023-05-07T04:54:12;4.13;;;2.10;;
9763;SDS011;4921;43.214;27.936;2023-05-07T04:56:39;4.03;;;2.00;;
9763;SDS011;4921;43.214;27.936;2023-05-07T04:59:06;3.73;;;2.13;;
9763;SDS011;4921;43.214;27.936;2023-05-07T05:01:33;6.10;;;2.13;;
9763;SDS011;4921;43.214;27.936;2023-05-07T05:04:00;4.37;;;1.90;;
9763;SDS011;4921;43.214;27.936;2023-05-07T05:06:28;5.57;;;2.17;;
9763;SDS011;4921;43.214;27.936;2023-05-07T05:08:55;2.33;;;1.80;;
9763;SDS011;4921;43.214;27.936;2023-05-07T05:11:22;6.97;;;2.07;;
9763;SDS011;4921;43.214;27.936;2023-05-07T05:13:49;5.90;;;2.20;;
9763;SDS011;4921;43.214;27.936;2023-05-07T05:16:16;5.30;;;2.20;;
9763;SDS011;4921;43.214;27.936;2023-05-07T05:18:43;2.97;;;1.97;;
9763;SDS011;4921;43.214;27.936;2023-05-07T05:21:10;3.50;;;1.97;;
9763;SDS011;4921;43.214;27.936;2023-05-07T05:23:38;5.83;;;2.13;;
9763;SDS011;4921;43.214;27.936;2023-05-07T05:26:05;3.13;;;1.90;;
9763;SDS011;4921;43.214;27.936;2023-05-07T05:28:32;4.27;;;1.93;;
9763;SDS011;4921;43.214;27.936;2023-05-07T05:30:59;5.67;;;2.00;;
9763;SDS011;4921;43.214;27.936;2023-05-07T05:33:26;3.07;;;2.00;;
9763;SDS011;4921;43.214;27.936;2023-05-07T05:35:53;8.07;;;2.10;;
9763;SDS011;4921;43.214;27.936;2023-05-07T05:38:20;3.30;;;2.07;;
9763;SDS011;4921;43.214;27.936;2023-05-07T05:40:49;2.23;;;2.03;;
9763;SDS011;4921;43.214;27.936;2023-05-07T05:43:16;3.90;;;2.20;;
9763;SDS011;4921;43.214;27.936;2023-05-07T05:45:43;3.03;;;2.20;;
9763;SDS011;4921;43.214;27.936;2023-05-07T05:48:10;4.77;;;1.77;;
9763;SDS011;4921;43.214;27.936;2023-05-07T05:50:38;7.80;;;1.90;;
9763;SDS011;4921;43.214;27.936;2023-05-07T05:53:05;2.23;;;2.07;;
9763;SDS011;4921;43.214;27.936;2023-05-07T05:55:32;4.77;;;2.10;;
9763;SDS011;4921;43.214;27.936;2023-05-07T05:58:00;5.73;;;1.90;;
9763;SDS011;4921;43.214;27.936;2023-05-07T06:00:28;1.93;;;1.80;;
9763;SDS011;4921;43.214;27.936;2023-05-07T06:02:56;3.77;;;2.10;;
9763;SDS011;4921;43.214;27.936;2023-05-07T06:05:23;2.67;;;1.63;;
9763;SDS011;4921;43.214;27.936;2023-05-07T06:07:50;5.57;;;2.20;;
9763;SDS011;4921;43.214;27.936;2023-05-07T06:10:17;5.73;;;2.10;;
9763;SDS011;4921;43.214;27.936;2023-05-07T06:12:44;2.80;;;2.20;;
9763;SDS011;4921;43.214;27.936;2023-05-07T06:15:13;4.77;;;1.87;;
9763;SDS011;4921;43.214;27.936;2023-05-07T06:17:40;6.13;;;2.00;;
9763;SDS011;4921;43.214;27.936;2023-05-07T06:20:07;6.03;;;2.23;;
9763;SDS011;4921;43.214;27.936;2023-05-07T06:22:35;4.00;;;2.17;;
9763;SDS011;4921;43.214;27.936;2023-05-07T06:25:02;4.40;;;1.90;;
9763;SDS011;4921;43.214;27.936;2023-05-07T06:27:29;3.43;;;2.10;;
9763;SDS011;4921;43.214;27.936;2023-05-07T06:29:56;6.40;;;2.50;;
9763;SDS011;4921;43.214;27.936;2023-05-07T06:32:25;5.67;;;2.13;;
9763;SDS011;4921;43.214;27.936;2023-05-07T06:34:52;2.67;;;1.90;;
9763;SDS011;4921;43.214;27.936;2023-05-07T06:37:19;5.53;;;2.00;;
9763;SDS011;4921;43.214;27.936;2023-05-07T06:39:46;4.00;;;2.10;;
9763;SDS011;4921;43.214;27.936;2023-05-07T06:42:13;4.70;;;2.30;;
9763;SDS011;4921;43.214;27.936;2023-05-07T06:44:40;3.30;;;1.90;;
9763;SDS011;4921;43.214;27.936;2023-05-07T06:47:07;5.03;;;2.00;;
9763;SDS011;4921;43.214;27.936;2023-05-07T06:49:35;3.20;;;2.00;;
9763;SDS011;4921;43.214;27.936;2023-05-07T06:52:03;4.53;;;2.00;;
9763;SDS011;4921;43.214;27.936;2023-05-07T06:54:30;2.67;;;1.90;;
9763;SDS011;4921;43.214;27.936;2023-05-07T06:56:57;5.00;;;2.00;;
9763;SDS011;4921;43.214;27.936;2023-05-07T06:59:24;5.07;;;2.17;;
9763;SDS011;4921;43.214;27.936;2023-05-07T07:01:50;3.80;;;2.13;;
9763;SDS011;4921;43.214;27.936;2023-05-07T07:04:17;2.20;;;2.00;;
9763;SDS011;4921;43.214;27.936;2023-05-07T07:06:46;9.23;;;2.30;;
9763;SDS011;4921;43.214;27.936;2023-05-07T07:09:13;3.87;;;2.33;;
9763;SDS011;4921;43.214;27.936;2023-05-07T07:11:40;5.93;;;2.00;;
9763;SDS011;4921;43.214;27.936;2023-05-07T07:14:07;6.00;;;2.40;;
9763;SDS011;4921;43.214;27.936;2023-05-07T07:16:34;5.47;;;2.10;;
9763;SDS011;4921;43.214;27.936;2023-05-07T07:19:01;4.30;;;2.00;;
9763;SDS011;4921;43.214;27.936;2023-05-07T07:21:28;5.83;;;2.10;;
9763;SDS011;4921;43.214;27.936;2023-05-07T07:23:56;5.90;;;2.10;;
9763;SDS011;4921;43.214;27.936;2023-05-07T07:26:23;2.17;;;1.87;;
9763;SDS011;4921;43.214;27.936;2023-05-07T07:28:50;1.87;;;1.77;;
9763;SDS011;4921;43.214;27.936;2023-05-07T07:31:17;3.13;;;2.17;;
9763;SDS011;4921;43.214;27.936;2023-05-07T07:33:44;4.13;;;1.90;;
9763;SDS011;4921;43.214;27.936;2023-05-07T07:36:11;3.40;;;1.90;;
9763;SDS011;4921;43.214;27.936;2023-05-07T07:38:38;6.73;;;2.27;;
9763;SDS011;4921;43.214;27.936;2023-05-07T07:41:07;3.23;;;2.30;;
9763;SDS011;4921;43.214;27.936;2023-05-07T07:43:34;5.17;;;2.27;;
9763;SDS011;4921;43.214;27.936;2023-05-07T07:46:01;3.07;;;1.60;;
9763;SDS011;4921;43.214;27.936;2023-05-07T07:48:29;3.20;;;2.07;;
9763;SDS011;4921;43.214;27.936;2023-05-07T07:50:55;2.97;;;1.93;;
9763;SDS011;4921;43.214;27.936;2023-05-07T07:53:22;2.10;;;1.93;;
9763;SDS011;4921;43.214;27.936;2023-05-07T07:55:50;4.20;;;2.00;;
9763;SDS011;4921;43.214;27.936;2023-05-07T07:58:18;3.83;;;1.83;;
9763;SDS011;4921;43.214;27.936;2023-05-07T08:00:45;3.60;;;1.80;;
9763;SDS011;4921;43.214;27.936;2023-05-07T08:03:12;3.97;;;2.13;;
9763;SDS011;4921;43.214;27.936;2023-05-07T08:05:41;2.40;;;1.77;;
9763;SDS011;4921;43.214;27.936;2023-05-07T08:08:08;3.13;;;2.20;;
9763;SDS011;4921;43.214;27.936;2023-05-07T08:10:35;2.27;;;2.00;;
9763;SDS011;4921;43.214;27.936;2023-05-07T08:13:04;4.07;;;2.17;;
9763;SDS011;4921;43.214;27.936;2023-05-07T08:15:34;4.77;;;2.47;;
9763;SDS011;4921;43.214;27.936;2023-05-07T08:18:01;2.40;;;1.90;;
9763;SDS011;4921;43.214;27.936;2023-05-07T08:20:28;3.43;;;2.27;;
9763;SDS011;4921;43.214;27.936;2023-05-07T08:22:55;4.43;;;2.47;;
9763;SDS011;4921;43.214;27.936;2023-05-07T08:25:22;5.17;;;2.20;;
9763;SDS011;4921;43.214;27.936;2023-05-07T08:27:50;3.83;;;2.30;;
9763;SDS011;4921;43.214;27.936;2023-05-07T08:30:17;2.90;;;2.30;;
9763;SDS011;4921;43.214;27.936;2023-05-07T08:32:45;4.97;;;2.10;;
9763;SDS011;4921;43.214;27.936;2023-05-07T08:35:12;3.13;;;1.93;;
9763;SDS011;4921;43.214;27.936;2023-05-07T08:37:39;5.00;;;2.30;;
9763;SDS011;4921;43.214;27.936;2023-05-07T08:40:06;5.77;;;2.13;;
9763;SDS011;4921;43.214;27.936;2023-05-07T08:42:35;3.33;;;2.47;;
9763;SDS011;4921;43.214;27.936;2023-05-07T08:45:03;4.93;;;2.23;;
9763;SDS011;4921;43.214;27.936;2023-05-07T08:47:39;3.00;;;2.30;;
9763;SDS011;4921;43.214;27.936;2023-05-07T08:50:11;6.60;;;3.40;;
9763;SDS011;4921;43.214;27.936;2023-05-07T08:52:38;6.30;;;2.63;;
9763;SDS011;4921;43.214;27.936;2023-05-07T08:55:06;8.63;;;2.63;;
9763;SDS011;4921;43.214;27.936;2023-05-07T08:57:35;4.87;;;2.40;;
9763;SDS011;4921;43.214;27.936;2023-05-07T09:00:03;3.50;;;2.53;;
9763;SDS011;4921;43.214;27.936;2023-05-07T09:02:32;4.90;;;2.80;;
9763;SDS011;4921;43.214;27.936;2023-05-07T09:07:46;2.80;;;2.20;;
9763;SDS011;4921;43.214;27.936;2023-05-07T09:10:14;3.90;;;2.60;;
9763;SDS011;4921;43.214;27.936;2023-05-07T09:12:41;2.63;;;2.23;;
9763;SDS011;4921;43.214;27.936;2023-05-07T09:15:08;5.37;;;2.30;;
9763;SDS011;4921;43.214;27.936;2023-05-07T09:17:37;3.50;;;2.37;;
9763;SDS011;4921;43.214;27.936;2023-05-07T09:20:04;6.50;;;2.40;;
9763;SDS011;4921;43.214;27.936;2023-05-07T09:22:34;6.57;;;2.50;;
9763;SDS011;4921;43.214;27.936;2023-05-07T09:25:09;5.23;;;2.13;;
9763;SDS011;4921;43.214;27.936;2023-05-07T09:27:36;4.47;;;2.30;;
9763;SDS011;4921;43.214;27.936;2023-05-07T09:30:04;6.37;;;2.37;;
9763;SDS011;4921;43.214;27.936;2023-05-07T09:32:34;3.53;;;1.90;;
9763;SDS011;4921;43.214;27.936;2023-05-07T09:35:03;4.03;;;1.83;;
9763;SDS011;4921;43.214;27.936;2023-05-07T09:37:30;3.40;;;2.10;;
9763;SDS011;4921;43.214;27.936;2023-05-07T09:39:59;4.47;;;2.40;;
9763;SDS011;4921;43.214;27.936;2023-05-07T09:42:26;4.83;;;2.10;;
9763;SDS011;4921;43.214;27.936;2023-05-07T09:44:53;5.07;;;2.47;;
9763;SDS011;4921;43.214;27.936;2023-05-07T09:47:23;3.47;;;1.87;;
9763;SDS011;4921;43.214;27.936;2023-05-07T09:49:52;4.70;;;2.33;;
9763;SDS011;4921;43.214;27.936;2023-05-07T09:52:22;5.93;;;2.10;;
9763;SDS011;4921;43.214;27.936;2023-05-07T09:54:50;4.23;;;2.20;;
9763;SDS011;4921;43.214;27.936;2023-05-07T09:57:21;7.00;;;2.50;;
9763;SDS011;4921;43.214;27.936;2023-05-07T09:59:50;5.60;;;2.43;;
9763;SDS011;4921;43.214;27.936;2023-05-07T10:02:18;5.87;;;2.83;;
9763;SDS011;4921;43.214;27.936;2023-05-07T10:04:46;5.90;;;2.90;;
9763;SDS011;4921;43.214;27.936;2023-05-07T10:07:14;5.60;;;3.00;;
9763;SDS011;4921;43.214;27.936;2023-05-07T10:09:42;7.17;;;2.93;;
9763;SDS011;4921;43.214;27.936;2023-05-07T10:12:11;8.73;;;3.23;;
9763;SDS011;4921;43.214;27.936;2023-05-07T10:14:40;5.37;;;2.90;;
9763;SDS011;4921;43.214;27.936;2023-05-07T10:17:07;6.93;;;2.77;;
9763;SDS011;4921;43.214;27.936;2023-05-07T10:19:36;6.63;;;2.70;;
9763;SDS011;4921;43.214;27.936;2023-05-07T10:22:05;5.07;;;2.67;;
9763;SDS011;4921;43.214;27.936;2023-05-07T10:24:34;8.43;;;3.00;;
9763;SDS011;4921;43.214;27.936;2023-05-07T10:27:04;7.17;;;3.33;;
9763;SDS011;4921;43.214;27.936;2023-05-07T10:29:37;7.77;;;2.80;;
9763;SDS011;4921;43.214;27.936;2023-05-07T10:32:19;5.20;;;2.90;;
9763;SDS011;4921;43.214;27.936;2023-05-07T10:34:58;8.03;;;3.20;;
9763;SDS011;4921;43.214;27.936;2023-05-07T10:37:28;5.00;;;2.90;;
9763;SDS011;4921;43.214;27.936;2023-05-07T10:39:56;4.73;;;3.07;;
9763;SDS011;4921;43.214;27.936;2023-05-07T10:42:23;7.43;;;3.20;;
9763;SDS011;4921;43.214;27.936;2023-05-07T10:44:52;7.07;;;3.10;;
9763;SDS011;4921;43.214;27.936;2023-05-07T10:47:19;8.60;;;3.33;;
9763;SDS011;4921;43.214;27.936;2023-05-07T10:58:54;11.70;;;3.43;;
9763;SDS011;4921;43.214;27.936;2023-05-07T11:04:18;7.80;;;3.53;;
9763;SDS011;4921;43.214;27.936;2023-05-07T11:09:59;8.13;;;3.47;;
9763;SDS011;4921;43.214;27.936;2023-05-07T11:18:03;6.07;;;3.50;;
9763;SDS011;4921;43.214;27.936;2023-05-07T11:26:44;8.93;;;3.63;;
9763;SDS011;4921;43.214;27.936;2023-05-07T11:29:12;11.10;;;3.20;;
9763;SDS011;4921;43.214;27.936;2023-05-07T11:31:40;6.97;;;3.40;;
9763;SDS011;4921;43.214;27.936;2023-05-07T11:34:09;8.00;;;3.30;;
9763;SDS011;4921;43.214;27.936;2023-05-07T11:36:41;10.97;;;3.50;;
9763;SDS011;4921;43.214;27.936;2023-05-07T11:39:25;7.70;;;3.30;;
9763;SDS011;4921;43.214;27.936;2023-05-07T11:41:55;12.77;;;3.60;;
9763;SDS011;4921;43.214;27.936;2023-05-07T11:44:22;6.07;;;3.20;;
9763;SDS011;4921;43.214;27.936;2023-05-07T11:46:49;11.83;;;3.90;;
9763;SDS011;4921;43.214;27.936;2023-05-07T11:49:18;4.97;;;3.00;;
9763;SDS011;4921;43.214;27.936;2023-05-07T11:51:45;7.13;;;3.40;;
9763;SDS011;4921;43.214;27.936;2023-05-07T11:54:15;5.87;;;3.20;;
9763;SDS011;4921;43.214;27.936;2023-05-07T11:56:43;6.30;;;3.13;;
9763;SDS011;4921;43.214;27.936;2023-05-07T11:59:11;7.67;;;3.60;;
9763;SDS011;4921;43.214;27.936;2023-05-07T12:01:38;8.03;;;3.40;;
9763;SDS011;4921;43.214;27.936;2023-05-07T12:04:05;9.43;;;3.30;;
9763;SDS011;4921;43.214;27.936;2023-05-07T12:06:35;6.57;;;3.30;;
9763;SDS011;4921;43.214;27.936;2023-05-07T12:09:04;8.27;;;3.30;;
9763;SDS011;4921;43.214;27.936;2023-05-07T12:11:32;6.53;;;3.30;;
9763;SDS011;4921;43.214;27.936;2023-05-07T12:14:00;5.83;;;3.17;;
9763;SDS011;4921;43.214;27.936;2023-05-07T12:16:27;5.93;;;3.23;;
9763;SDS011;4921;43.214;27.936;2023-05-07T12:18:55;4.87;;;3.07;;
9763;SDS011;4921;43.214;27.936;2023-05-07T12:21:24;7.77;;;3.70;;
9763;SDS011;4921;43.214;27.936;2023-05-07T12:23:52;6.43;;;3.40;;
9763;SDS011;4921;43.214;27.936;2023-05-07T12:26:19;8.23;;;3.20;;
9763;SDS011;4921;43.214;27.936;2023-05-07T12:28:47;10.60;;;3.43;;
9763;SDS011;4921;43.214;27.936;2023-05-07T12:31:14;8.20;;;2.97;;
9763;SDS011;4921;43.214;27.936;2023-05-07T12:33:41;8.27;;;3.37;;
9763;SDS011;4921;43.214;27.936;2023-05-07T12:36:08;9.67;;;3.40;;
9763;SDS011;4921;43.214;27.936;2023-05-07T12:38:38;6.13;;;3.13;;
9763;SDS011;4921;43.214;27.936;2023-05-07T12:41:08;8.17;;;4.53;;
9763;SDS011;4921;43.214;27.936;2023-05-07T12:43:37;10.90;;;3.70;;
9763;SDS011;4921;43.214;27.936;2023-05-07T12:46:05;8.13;;;3.37;;
9763;SDS011;4921;43.214;27.936;2023-05-07T12:48:33;7.87;;;3.63;;
9763;SDS011;4921;43.214;27.936;2023-05-07T12:51:02;8.27;;;3.40;;
9763;SDS011;4921;43.214;27.936;2023-05-07T12:53:29;8.93;;;3.60;;
9763;SDS011;4921;43.214;27.936;2023-05-07T12:55:57;9.50;;;3.60;;
9763;SDS011;4921;43.214;27.936;2023-05-07T12:58:27;8.23;;;4.20;;
9763;SDS011;4921;43.214;27.936;2023-05-07T13:00:55;5.50;;;3.50;;
9763;SDS011;4921;43.214;27.936;2023-05-07T13:03:25;9.03;;;3.80;;
9763;SDS011;4921;43.214;27.936;2023-05-07T13:05:53;6.77;;;3.97;;
9763;SDS011;4921;43.214;27.936;2023-05-07T13:08:25;10.17;;;5.20;;
9763;SDS011;4921;43.214;27.936;2023-05-07T13:10:52;9.20;;;4.37;;
9763;SDS011;4921;43.214;27.936;2023-05-07T13:13:20;10.53;;;3.93;;
9763;SDS011;4921;43.214;27.936;2023-05-07T13:15:48;9.27;;;3.97;;
9763;SDS011;4921;43.214;27.936;2023-05-07T13:18:15;6.57;;;3.10;;
9763;SDS011;4921;43.214;27.936;2023-05-07T13:20:42;5.53;;;3.17;;
9763;SDS011;4921;43.214;27.936;2023-05-07T13:23:09;7.37;;;3.30;;
9763;SDS011;4921;43.214;27.936;2023-05-07T13:25:36;9.47;;;3.03;;
9763;SDS011;4921;43.214;27.936;2023-05-07T13:28:03;6.77;;;2.93;;
9763;SDS011;4921;43.214;27.936;2023-05-07T13:30:30;7.33;;;3.13;;
9763;SDS011;4921;43.214;27.936;2023-05-07T13:32:59;5.13;;;2.83;;
9763;SDS011;4921;43.214;27.936;2023-05-07T13:35:26;5.00;;;3.50;;
9763;SDS011;4921;43.214;27.936;2023-05-07T13:37:53;7.00;;;3.10;;
9763;SDS011;4921;43.214;27.936;2023-05-07T13:40:21;4.90;;;3.00;;
9763;SDS011;4921;43.214;27.936;2023-05-07T13:42:48;9.47;;;3.40;;
9763;SDS011;4921;43.214;27.936;2023-05-07T13:45:15;12.10;;;3.27;;
9763;SDS011;4921;43.214;27.936;2023-05-07T13:47:43;4.60;;;2.80;;
9763;SDS011;4921;43.214;27.936;2023-05-07T13:50:11;7.50;;;3.00;;
9763;SDS011;4921;43.214;27.936;2023-05-07T13:52:40;8.70;;;3.17;;
9763;SDS011;4921;43.214;27.936;2023-05-07T13:55:11;6.07;;;3.27;;
9763;SDS011;4921;43.214;27.936;2023-05-07T13:57:38;8.63;;;3.50;;
9763;SDS011;4921;43.214;27.936;2023-05-07T14:00:05;7.00;;;3.50;;
9763;SDS011;4921;43.214;27.936;2023-05-07T14:02:33;12.10;;;2.60;;
9763;SDS011;4921;43.214;27.936;2023-05-07T14:05:00;9.20;;;3.23;;
9763;SDS011;4921;43.214;27.936;2023-05-07T14:07:28;13.13;;;4.93;;
9763;SDS011;4921;43.214;27.936;2023-05-07T14:09:56;8.53;;;3.23;;
9763;SDS011;4921;43.214;27.936;2023-05-07T14:12:23;9.23;;;3.60;;
9763;SDS011;4921;43.214;27.936;2023-05-07T14:14:50;9.63;;;3.37;;
9763;SDS011;4921;43.214;27.936;2023-05-07T14:17:17;6.20;;;3.27;;
9763;SDS011;4921;43.214;27.936;2023-05-07T14:19:45;7.10;;;2.93;;
9763;SDS011;4921;43.214;27.936;2023-05-07T14:22:13;9.47;;;3.37;;
9763;SDS011;4921;43.214;27.936;2023-05-07T14:24:41;4.60;;;3.30;;
9763;SDS011;4921;43.214;27.936;2023-05-07T14:27:08;6.63;;;3.30;;
9763;SDS011;4921;43.214;27.936;2023-05-07T14:29:35;6.43;;;3.47;;
9763;SDS011;4921;43.214;27.936;2023-05-07T14:32:02;12.73;;;3.97;;
9763;SDS011;4921;43.214;27.936;2023-05-07T14:34:29;8.90;;;3.93;;
9763;SDS011;4921;43.214;27.936;2023-05-07T14:36:57;9.53;;;3.47;;
9763;SDS011;4921;43.214;27.936;2023-05-07T14:39:26;7.80;;;3.67;;
9763;SDS011;4921;43.214;27.936;2023-05-07T14:41:54;6.50;;;2.83;;
9763;SDS011;4921;43.214;27.936;2023-05-07T14:44:21;9.17;;;3.40;;
9763;SDS011;4921;43.214;27.936;2023-05-07T14:46:48;8.23;;;3.47;;
9763;SDS011;4921;43.214;27.936;2023-05-07T14:49:15;8.07;;;3.30;;
9763;SDS011;4921;43.214;27.936;2023-05-07T14:51:43;6.30;;;3.20;;
9763;SDS011;4921;43.214;27.936;2023-05-07T14:54:11;6.07;;;3.33;;
9763;SDS011;4921;43.214;27.936;2023-05-07T14:56:38;8.33;;;3.40;;
9763;SDS011;4921;43.214;27.936;2023-05-07T14:59:08;5.73;;;3.30;;
9763;SDS011;4921;43.214;27.936;2023-05-07T15:01:35;7.27;;;3.67;;
9763;SDS011;4921;43.214;27.936;2023-05-07T15:04:03;9.27;;;3.73;;
9763;SDS011;4921;43.214;27.936;2023-05-07T15:06:30;9.07;;;3.87;;
9763;SDS011;4921;43.214;27.936;2023-05-07T15:08:58;8.50;;;3.30;;
9763;SDS011;4921;43.214;27.936;2023-05-07T15:11:25;5.87;;;3.47;;
9763;SDS011;4921;43.214;27.936;2023-05-07T15:13:53;12.50;;;4.07;;
9763;SDS011;4921;43.214;27.936;2023-05-07T15:16:21;5.83;;;3.60;;
9763;SDS011;4921;43.214;27.936;2023-05-07T15:18:48;9.20;;;3.67;;
9763;SDS011;4921;43.214;27.936;2023-05-07T15:21:15;16.77;;;4.30;;
9763;SDS011;4921;43.214;27.936;2023-05-07T15:23:42;14.53;;;3.83;;
9763;SDS011;4921;43.214;27.936;2023-05-07T15:26:10;11.27;;;4.00;;
9763;SDS011;4921;43.214;27.936;2023-05-07T15:28:37;9.57;;;3.67;;
9763;SDS011;4921;43.214;27.936;2023-05-07T15:31:04;8.10;;;3.60;;
9763;SDS011;4921;43.214;27.936;2023-05-07T15:33:33;5.50;;;3.40;;